Overview Statistics Trail Chart Weather Telemetry Raw packets
 

This is the latest recevied weather packets stored in our database for station/object OE5RBO. If no packets are shown the sender has not sent any weather packets the latest 10 day(s).

<< 29 30 31 32 33 34 35 >>
Time Temp. Humidity Pressure Rain* Wind** Luminosity Snow
1788132110 20° C 89% 1016.5 hPa 0 mm - - -
1788131510 22.22° C 77% 1015.7 hPa 0 mm - - -
1788130909 21.67° C 78% 1015.9 hPa 0 mm - - -
1788130309 20.56° C 83% 1016.2 hPa 0 mm - - -
1788129708 19.44° C 90% 1016.4 hPa 0 mm - - -
1788128508 18.89° C 92% 1016.4 hPa 0 mm - - -
1788127908 18.89° C 91% 1016.3 hPa 0 mm - - -
1788127307 18.89° C 91% 1016.4 hPa 0 mm - - -
1788126707 19.44° C 90% 1016.3 hPa 0 mm - - -
1788125506 19.44° C 92% 1016.4 hPa 0 mm - - -
1788124906 19.44° C 91% 1016.5 hPa 0 mm - - -
1788124305 19.44° C 91% 1016.5 hPa 0 mm - - -
1788123705 19.44° C 90% 1016.5 hPa 0 mm - - -
1788123104 20° C 89% 1016.5 hPa 0 mm - - -
1788121904 19.44° C 90% 1016.6 hPa 0 mm - - -
1788120703 20° C 87% 1016.5 hPa 0 mm - - -
1788120104 20° C 85% 1016.5 hPa 0 mm - - -
1788119502 20.56° C 85% 1016.4 hPa 0 mm - - -
1788118902 21.11° C 82% 1016.4 hPa 0 mm - - -
1788118302 21.11° C 83% 1016.4 hPa 0 mm - - -
1788117709 21.11° C 82% 1016.3 hPa 0 mm - - -
1788117101 21.67° C 81% 1016.3 hPa 0 mm - - -
1788116501 21.67° C 80% 1016.2 hPa 0 mm - - -
1788115900 22.22° C 80% 1016.3 hPa 0 mm - - -
1788115300 22.78° C 77% 1016.1 hPa 0 mm - - -

* Rain since midnight (hover to see other rain measurements)
** Current wind speed in m/s (hover to see current wind gust speed)